Time;durP1;ratioP1;P1;durP2;ratioP2;P2;SDS_P1;SDS_P2;PMS_P1;PMS_P2;Temp;Humidity;BMP_temperature;BMP_pressure;BME280_temperature;BME280_humidity;BME280_pressure;Samples;Min_cycle;Max_cycle;Signal;HPM_P1;HPM_P2
2022/06/30 00:00:03;;;;;;;;;0.00;0.00;;;;;24.06;52.76;100989.31;5059132;28;45410;-66
2022/06/30 00:02:28;;;;;;;;;0.00;0.00;;;;;24.05;52.57;100987.59;5060169;28;46327;-66
2022/06/30 00:04:53;;;;;;;;;0.00;0.00;;;;;24.11;51.76;100991.38;5053501;28;45338;-66
2022/06/30 00:07:19;;;;;;;;;0.00;0.00;;;;;24.23;51.38;100975.69;5061507;28;45481;-66
2022/06/30 00:09:44;;;;;;;;;0.00;0.00;;;;;24.30;51.35;100978.38;5060823;28;45548;-65
2022/06/30 00:12:10;;;;;;;;;1.00;1.00;;;;;24.17;51.27;100984.94;5062028;28;45199;-68
2022/06/30 00:14:35;;;;;;;;;0.00;0.00;;;;;23.88;51.45;100981.00;5055475;28;45465;-65
2022/06/30 00:17:01;;;;;;;;;0.00;0.00;;;;;23.79;52.26;100987.06;5062521;28;45287;-66
2022/06/30 00:19:26;;;;;;;;;0.00;0.00;;;;;23.80;53.28;100992.38;5054225;28;45445;-68
2022/06/30 00:21:51;;;;;;;;;1.00;1.00;;;;;23.26;54.63;100999.44;5063647;28;47874;-66
2022/06/30 00:24:17;;;;;;;;;0.00;0.00;;;;;23.30;54.41;100997.09;5059976;28;45498;-65
2022/06/30 00:26:42;;;;;;;;;0.00;0.00;;;;;23.34;54.24;101005.78;5065471;28;45326;-67
2022/06/30 00:29:08;;;;;;;;;1.00;1.00;;;;;23.40;52.88;100991.00;5059617;28;45346;-66
2022/06/30 00:31:33;;;;;;;;;0.00;0.00;;;;;23.42;51.59;100991.66;5065460;28;45515;-66
2022/06/30 00:33:58;;;;;;;;;0.67;0.67;;;;;23.37;52.03;100995.13;5059754;28;45452;-67
2022/06/30 00:36:23;;;;;;;;;0.00;0.00;;;;;23.25;52.45;100992.19;5065003;28;46125;-66
2022/06/30 00:38:49;;;;;;;;;2.67;1.00;;;;;23.23;51.93;100997.13;5061136;28;45531;-65
2022/06/30 00:41:14;;;;;;;;;1.00;1.00;;;;;23.24;52.20;100996.03;5064979;28;46498;-65
2022/06/30 00:43:44;;;;;;;;;1.00;0.00;;;;;23.15;52.94;101002.97;5063061;28;45397;-65
2022/06/30 00:46:10;;;;;;;;;2.00;1.00;;;;;23.01;53.94;101009.69;5065494;28;45508;-65
2022/06/30 00:48:36;;;;;;;;;1.00;1.00;;;;;22.92;54.41;101015.69;5061733;28;47674;-65
2022/06/30 00:51:06;;;;;;;;;1.00;1.00;;;;;23.13;53.84;101015.34;5063588;28;45548;-65
2022/06/30 00:53:36;;;;;;;;;1.00;1.00;;;;;23.25;53.38;101019.94;5059334;28;45397;-65
2022/06/30 00:56:06;;;;;;;;;2.67;1.67;;;;;23.16;54.23;101018.50;5065360;28;45437;-65
2022/06/30 00:58:35;;;;;;;;;2.00;2.00;;;;;23.22;54.28;101014.00;5060688;28;45480;-65
2022/06/30 01:01:03;;;;;;;;;1.00;1.00;;;;;23.08;55.47;101007.72;5071387;27;45566;-65
2022/06/30 01:03:32;;;;;;;;;2.00;2.00;;;;;23.16;55.37;101007.41;5061301;28;45429;-65
2022/06/30 01:05:59;;;;;;;;;2.33;2.33;;;;;23.22;55.26;100989.91;5064016;28;45401;-64
2022/06/30 01:08:25;;;;;;;;;2.00;2.00;;;;;23.07;55.93;100989.38;5060184;28;45553;-65
2022/06/30 01:13:35;;;;;;;;;2.00;2.00;;;;;22.72;58.25;100986.13;5060648;28;45376;-65
2022/06/30 01:16:01;;;;;;;;;4.67;4.00;;;;;22.84;58.22;100997.41;5058763;28;45393;-65
2022/06/30 01:18:26;;;;;;;;;3.67;3.67;;;;;22.89;57.50;100987.34;5063203;28;45531;-65
2022/06/30 01:20:51;;;;;;;;;6.33;3.00;;;;;23.05;57.11;100985.97;5064482;28;45324;-65
2022/06/30 01:23:17;;;;;;;;;2.00;2.00;;;;;23.05;56.50;100993.44;5061477;28;45382;-65
2022/06/30 01:25:42;;;;;;;;;4.00;2.67;;;;;23.06;57.01;100998.75;5064752;28;45282;-65
2022/06/30 01:28:07;;;;;;;;;5.00;2.00;;;;;22.85;57.81;100990.81;5056742;28;45311;-65
2022/06/30 01:30:33;;;;;;;;;3.00;3.00;;;;;22.78;58.48;100996.41;5063019;28;47704;-65
2022/06/30 01:32:58;;;;;;;;;3.00;3.00;;;;;22.64;59.10;100989.19;5059968;28;45502;-65
2022/06/30 01:35:23;;;;;;;;;2.00;2.00;;;;;22.70;58.95;100979.16;5063131;28;45774;-65
2022/06/30 01:37:57;;;;;;;;;2.67;2.00;;;;;22.67;59.96;100977.66;5061310;28;45568;-65
2022/06/30 01:40:25;;;;;;;;;2.00;2.00;;;;;22.25;60.27;100990.22;5062036;28;45267;-65
2022/06/30 01:42:50;;;;;;;;;2.00;2.00;;;;;22.20;60.89;100997.50;5062054;28;45406;-65
2022/06/30 01:45:16;;;;;;;;;2.00;2.00;;;;;22.28;60.04;100975.13;5060125;28;45580;-65
2022/06/30 01:47:42;;;;;;;;;1.67;1.67;;;;;22.37;59.33;100980.16;5063023;28;45211;-65
2022/06/30 01:50:11;;;;;;;;;1.67;1.67;;;;;22.27;60.20;100990.00;5059138;28;46112;-65
2022/06/30 01:52:36;;;;;;;;;1.67;1.00;;;;;22.31;59.61;100994.88;5049975;28;45343;-65
2022/06/30 01:55:02;;;;;;;;;1.67;1.67;;;;;22.31;60.09;100983.81;5059852;28;45535;-65
2022/06/30 01:57:28;;;;;;;;;1.00;1.00;;;;;22.50;59.57;100993.13;5063231;28;45350;-65
2022/06/30 01:59:53;;;;;;;;;2.67;0.00;;;;;22.42;60.35;100999.75;5059924;28;46997;-65
2022/06/30 02:02:19;;;;;;;;;1.00;1.00;;;;;22.46;59.55;100987.16;5079011;28;45460;-65
2022/06/30 02:04:46;;;;;;;;;2.33;1.00;;;;;22.37;60.57;100999.53;5060978;28;45302;-66
2022/06/30 02:07:12;;;;;;;;;1.33;1.33;;;;;22.64;59.50;101004.97;5064508;28;45631;-65
2022/06/30 02:09:38;;;;;;;;;1.00;1.00;;;;;22.49;60.56;101006.09;5060945;28;45639;-65
2022/06/30 02:14:48;;;;;;;;;1.00;1.00;;;;;22.22;61.54;101007.25;5057069;28;45224;-65
2022/06/30 02:17:13;;;;;;;;;1.67;1.67;;;;;22.06;63.00;101005.00;5063201;28;45188;-65
2022/06/30 02:19:38;;;;;;;;;4.00;2.33;;;;;22.37;61.40;100991.22;5056901;28;45577;-65
2022/06/30 02:22:04;;;;;;;;;2.00;2.00;;;;;22.55;58.87;100984.97;5064044;28;45262;-65
2022/06/30 02:24:29;;;;;;;;;1.00;1.00;;;;;22.46;60.13;100987.16;5056480;28;45389;-65
2022/06/30 02:26:55;;;;;;;;;3.00;1.00;;;;;22.26;60.38;100980.84;5064321;28;45618;-65
2022/06/30 02:29:20;;;;;;;;;4.00;1.00;;;;;22.06;61.41;100980.09;5056007;28;46324;-65
2022/06/30 02:31:45;;;;;;;;;2.00;2.00;;;;;21.71;63.76;100977.56;5063624;28;45699;-65
2022/06/30 02:34:10;;;;;;;;;0.67;0.67;;;;;21.98;62.50;100972.03;5061467;28;45364;-65
2022/06/30 02:36:36;;;;;;;;;2.00;2.00;;;;;22.04;62.07;100980.31;5063747;28;45413;-65
2022/06/30 02:39:01;;;;;;;;;2.67;2.67;;;;;22.11;61.88;100994.13;5060461;28;45617;-65
2022/06/30 02:41:26;;;;;;;;;2.00;2.00;;;;;22.11;62.26;100978.34;5063381;28;45317;-65
2022/06/30 02:43:52;;;;;;;;;1.67;1.67;;;;;22.15;61.25;100989.81;5059372;28;45387;-65
2022/06/30 02:46:18;;;;;;;;;4.00;2.33;;;;;22.22;61.57;100985.13;5064125;28;45457;-65
2022/06/30 02:48:44;;;;;;;;;2.00;2.00;;;;;22.37;60.65;100991.22;5056896;28;46836;-65
2022/06/30 02:51:09;;;;;;;;;2.67;2.67;;;;;22.12;61.96;100987.50;5059809;28;45480;-65
2022/06/30 02:53:34;;;;;;;;;3.00;2.67;;;;;22.15;61.98;100987.06;5058316;28;45508;-65
2022/06/30 02:56:00;;;;;;;;;2.33;2.33;;;;;22.15;61.46;100984.28;5062528;28;45391;-65
2022/06/30 02:58:25;;;;;;;;;2.00;2.00;;;;;22.22;61.22;100987.88;5059240;28;46328;-65
2022/06/30 03:00:50;;;;;;;;;4.00;3.00;;;;;22.08;61.77;100994.53;5061389;28;45238;-65
2022/06/30 03:03:16;;;;;;;;;2.00;2.00;;;;;22.19;61.33;101001.31;5059851;28;46392;-65
2022/06/30 03:05:41;;;;;;;;;4.00;2.33;;;;;22.14;61.26;100993.66;5063139;28;45152;-65
2022/06/30 03:08:06;;;;;;;;;1.67;1.67;;;;;21.98;62.05;100988.63;5060638;28;45467;-65
2022/06/30 03:10:32;;;;;;;;;5.00;2.00;;;;;21.92;62.10;100987.53;5078091;27;45515;-65
2022/06/30 03:12:57;;;;;;;;;0.67;0.67;;;;;21.94;62.10;101001.16;5061294;28;45180;-65
2022/06/30 03:15:22;;;;;;;;;3.00;3.00;;;;;21.94;61.97;101004.75;5057124;28;45208;-66
2022/06/30 03:17:48;;;;;;;;;2.00;2.00;;;;;21.86;62.05;101007.75;5061271;28;46268;-65
2022/06/30 03:20:13;;;;;;;;;3.33;2.67;;;;;21.92;62.33;101006.88;5058161;28;45239;-65
2022/06/30 03:22:38;;;;;;;;;5.33;2.67;;;;;22.12;61.74;101001.34;5060160;28;45211;-66
2022/06/30 03:25:04;;;;;;;;;3.33;3.00;;;;;22.34;60.62;101013.84;5057612;28;45365;-65
2022/06/30 03:27:29;;;;;;;;;3.67;3.67;;;;;22.27;60.24;101010.25;5061400;28;46318;-65
2022/06/30 03:29:55;;;;;;;;;4.00;3.00;;;;;22.05;60.97;101008.81;5057626;28;45308;-65
2022/06/30 03:32:20;;;;;;;;;2.67;2.33;;;;;21.90;62.31;100999.88;5061272;28;45448;-65
2022/06/30 03:34:45;;;;;;;;;2.00;1.33;;;;;21.97;61.61;100998.00;5058072;28;45483;-65
2022/06/30 03:37:11;;;;;;;;;4.67;2.33;;;;;22.04;61.69;100994.13;5062469;28;45589;-66
2022/06/30 03:39:36;;;;;;;;;6.00;4.00;;;;;21.95;62.38;101000.94;5059807;28;45580;-66
2022/06/30 03:42:01;;;;;;;;;4.67;3.33;;;;;22.01;61.87;101004.78;5062563;28;45507;-66
2022/06/30 03:44:27;;;;;;;;;3.33;3.33;;;;;22.18;61.23;101013.47;5059272;28;45448;-66
2022/06/30 03:46:52;;;;;;;;;3.67;2.67;;;;;21.99;61.54;101004.16;5061124;28;46671;-66
2022/06/30 03:49:17;;;;;;;;;4.33;2.67;;;;;21.58;63.05;101005.25;5069824;28;45486;-66
2022/06/30 03:51:43;;;;;;;;;2.67;2.67;;;;;21.58;63.40;101019.06;5061148;28;45389;-66
2022/06/30 03:54:08;;;;;;;;;1.67;1.67;;;;;21.67;63.40;101020.56;5057634;28;45571;-66
2022/06/30 03:56:33;;;;;;;;;3.00;2.67;;;;;21.80;62.62;101027.13;5061041;28;46269;-65
2022/06/30 03:58:58;;;;;;;;;3.67;3.33;;;;;21.88;61.75;101019.47;5061514;28;45373;-66
2022/06/30 04:01:24;;;;;;;;;2.67;2.67;;;;;21.85;61.83;101039.25;5063567;28;45280;-66
2022/06/30 04:03:49;;;;;;;;;3.00;3.00;;;;;21.86;62.01;101042.84;5063164;28;45365;-66
2022/06/30 04:06:14;;;;;;;;;3.67;2.67;;;;;22.03;60.88;101030.31;5063845;28;47367;-66
2022/06/30 04:08:40;;;;;;;;;4.33;3.33;;;;;21.95;61.13;101027.75;5063478;28;45346;-66
2022/06/30 04:11:05;;;;;;;;;6.00;2.33;;;;;22.03;61.44;101024.78;5064547;28;45451;-66
2022/06/30 04:13:31;;;;;;;;;7.67;5.00;;;;;22.06;61.43;101035.44;5062803;28;45251;-68
2022/06/30 04:15:56;;;;;;;;;11.00;10.00;;;;;21.93;63.86;101035.41;5060654;28;46695;-66
2022/06/30 04:18:22;;;;;;;;;4.00;3.67;;;;;22.04;65.53;101026.50;5058022;28;45399;-66
2022/06/30 04:20:47;;;;;;;;;4.67;4.00;;;;;21.97;65.41;101025.66;5065416;28;45460;-66
2022/06/30 04:23:13;;;;;;;;;7.00;5.67;;;;;21.89;68.10;101021.16;5064528;28;45206;-67
2022/06/30 04:25:39;;;;;;;;;4.67;4.67;;;;;21.99;68.20;101023.53;5059462;28;45886;-67
2022/06/30 04:28:04;;;;;;;;;4.67;4.67;;;;;22.06;71.85;101018.81;5063270;28;45595;-66
2022/06/30 04:33:14;;;;;;;;;5.33;3.33;;;;;22.06;69.65;101027.13;5061100;28;45556;-66
2022/06/30 04:35:39;;;;;;;;;3.00;3.00;;;;;21.93;68.26;101024.34;5061471;28;45366;-66
2022/06/30 04:38:05;;;;;;;;;6.33;3.33;;;;;21.79;68.42;101034.56;5060839;28;45304;-67
2022/06/30 04:43:15;;;;;;;;;3.67;2.67;;;;;21.95;73.58;101050.72;5061402;28;45413;-65
2022/06/30 04:45:41;;;;;;;;;2.00;1.67;;;;;21.98;70.90;101043.97;5061635;28;48190;-66
2022/06/30 04:48:07;;;;;;;;;3.33;1.67;;;;;22.07;71.25;101048.16;5057887;28;45895;-65
2022/06/30 04:50:32;;;;;;;;;3.67;3.00;;;;;22.06;73.25;101049.25;5060195;28;45481;-65
2022/06/30 04:52:57;;;;;;;;;4.67;4.67;;;;;22.13;73.00;101048.19;5062677;28;45310;-65
2022/06/30 04:55:23;;;;;;;;;4.67;4.67;;;;;22.09;67.99;101029.44;5063200;28;45559;-65
2022/06/30 04:57:48;;;;;;;;;5.33;5.33;;;;;22.07;69.19;101020.50;5060457;28;45303;-64
2022/06/30 05:00:14;;;;;;;;;7.67;7.33;;;;;22.06;72.00;101016.06;5062094;28;45247;-67
2022/06/30 05:02:39;;;;;;;;;9.00;9.00;;;;;22.03;71.23;101022.88;5061067;28;45430;-68
2022/06/30 05:05:05;;;;;;;;;5.33;5.33;;;;;22.00;71.23;101016.91;5061588;28;46572;-65
2022/06/30 05:07:31;;;;;;;;;4.67;4.67;;;;;21.70;75.94;101016.50;5063086;28;45627;-67
2022/06/30 05:09:56;;;;;;;;;7.00;6.00;;;;;21.63;70.75;101013.75;5062331;28;45318;-65
2022/06/30 05:12:21;;;;;;;;;17.33;12.67;;;;;21.47;70.97;101008.69;5063332;28;45187;-67
2022/06/30 05:14:47;;;;;;;;;8.67;8.67;;;;;21.42;72.22;101000.16;5061610;28;45394;-67
2022/06/30 05:17:12;;;;;;;;;12.33;10.67;;;;;21.60;77.42;101002.28;5062758;28;45417;-64
2022/06/30 05:19:38;;;;;;;;;10.67;10.00;;;;;21.52;78.72;101011.63;5061483;28;45231;-66
2022/06/30 05:22:04;;;;;;;;;11.33;11.00;;;;;21.60;79.00;100999.50;5063770;28;45169;-65
2022/06/30 05:27:13;;;;;;;;;10.00;7.33;;;;;21.75;79.83;101011.19;5063298;28;45429;-66
2022/06/30 05:29:38;;;;;;;;;12.33;9.67;;;;;21.67;76.12;101006.72;5056825;28;45389;-66
2022/06/30 05:32:04;;;;;;;;;4.33;4.33;;;;;21.52;74.71;101021.84;5062283;28;45396;-67
2022/06/30 05:34:30;;;;;;;;;6.50;5.50;;;;;21.51;75.28;101029.28;5055078;28;46510;-67
2022/06/30 05:36:55;;;;;;;;;7.00;5.67;;;;;21.51;78.15;101032.06;5061809;28;45501;-67
2022/06/30 05:39:21;;;;;;;;;7.67;6.33;;;;;21.56;76.21;101040.53;5055200;28;45500;-67
2022/06/30 05:41:46;;;;;;;;;8.67;6.33;;;;;21.49;75.04;101038.84;5063771;28;45667;-67
2022/06/30 05:44:11;;;;;;;;;5.33;5.33;;;;;21.58;76.75;101032.03;5054285;28;45432;-67
2022/06/30 05:46:37;;;;;;;;;7.33;7.33;;;;;21.61;77.63;101042.69;5063232;28;45477;-67
2022/06/30 05:49:04;;;;;;;;;5.00;5.00;;;;;21.49;77.39;101033.31;5055411;28;45497;-68
2022/06/30 05:51:30;;;;;;;;;7.33;7.33;;;;;21.56;80.24;101039.69;5055364;28;45473;-67
2022/06/30 05:53:55;;;;;;;;;6.67;6.67;;;;;21.62;80.46;101042.47;5057684;28;45435;-68
2022/06/30 05:56:20;;;;;;;;;4.00;4.00;;;;;21.69;79.39;101051.63;5062190;28;45387;-67
2022/06/30 05:58:46;;;;;;;;;8.00;7.00;;;;;21.64;78.08;101040.34;5060137;28;45432;-67
2022/06/30 06:01:11;;;;;;;;;4.67;4.67;;;;;21.66;78.04;101038.22;5063589;28;45490;-66
2022/06/30 06:03:37;;;;;;;;;5.33;5.33;;;;;21.83;73.29;101041.41;5060815;28;45724;-68
2022/06/30 06:06:02;;;;;;;;;8.33;7.67;;;;;21.88;76.36;101047.13;5062259;28;45156;-67
2022/06/30 06:08:28;;;;;;;;;6.67;6.67;;;;;21.72;78.26;101037.34;5059852;28;45906;-67
2022/06/30 06:10:53;;;;;;;;;6.67;6.33;;;;;21.54;80.87;101030.78;5062896;28;45295;-67
2022/06/30 06:13:18;;;;;;;;;7.67;7.67;;;;;21.58;80.69;101035.66;5057744;28;46479;-67
2022/06/30 06:15:44;;;;;;;;;8.00;7.00;;;;;21.46;80.93;101026.31;5063102;28;45277;-67
2022/06/30 06:18:10;;;;;;;;;4.67;4.67;;;;;21.50;80.49;101035.03;5056068;28;45357;-67
2022/06/30 06:20:35;;;;;;;;;4.67;4.67;;;;;21.47;81.69;101032.69;5061231;28;46211;-67
2022/06/30 06:23:01;;;;;;;;;6.33;5.67;;;;;21.55;82.03;101038.84;5059411;28;45506;-67
2022/06/30 06:25:26;;;;;;;;;7.00;7.00;;;;;21.50;81.02;101033.09;5062207;28;45384;-66
2022/06/30 06:30:35;;;;;;;;;8.67;6.00;;;;;21.47;83.36;101035.47;5061599;28;45341;-67
2022/06/30 06:33:01;;;;;;;;;6.00;6.00;;;;;21.62;82.81;101031.44;5059619;27;45798;-68
2022/06/30 06:35:27;;;;;;;;;8.33;6.67;;;;;21.83;78.29;101030.34;5058368;28;45409;-67
2022/06/30 06:37:52;;;;;;;;;6.00;5.67;;;;;21.89;80.14;101035.00;5060180;28;45392;-68
2022/06/30 06:40:18;;;;;;;;;9.67;5.33;;;;;21.96;80.44;101035.88;5058157;28;45456;-67
2022/06/30 06:42:43;;;;;;;;;4.00;4.00;;;;;22.06;75.79;101032.66;5060233;28;46741;-67
2022/06/30 06:45:08;;;;;;;;;7.67;5.67;;;;;22.18;75.15;101038.38;5060402;28;51312;-67
2022/06/30 06:47:34;;;;;;;;;7.00;4.67;;;;;22.21;76.50;101038.75;5060476;28;45582;-67
2022/06/30 06:49:59;;;;;;;;;5.33;5.33;;;;;22.16;77.74;101034.97;5057780;28;45779;-67
2022/06/30 06:52:27;;;;;;;;;5.33;5.33;;;;;22.20;77.28;101048.16;5060974;28;45984;-68
2022/06/30 06:54:53;;;;;;;;;8.00;5.67;;;;;22.29;74.66;101046.84;5056584;28;45252;-67
2022/06/30 06:57:18;;;;;;;;;8.33;8.33;;;;;22.31;73.76;101055.78;5062044;28;45350;-68
2022/06/30 06:59:44;;;;;;;;;4.00;4.00;;;;;22.32;73.94;101060.25;5060315;28;45188;-68
2022/06/30 07:02:09;;;;;;;;;3.67;3.67;;;;;22.34;75.91;101066.44;5060063;28;46579;-68
2022/06/30 07:04:35;;;;;;;;;6.00;6.00;;;;;22.21;75.81;101074.75;5058687;28;45322;-67
2022/06/30 07:07:00;;;;;;;;;6.33;6.33;;;;;22.04;72.13;101084.59;5062326;28;45256;-68
2022/06/30 07:09:26;;;;;;;;;6.33;5.00;;;;;21.99;73.39;101081.63;5058382;28;45481;-68
2022/06/30 07:11:51;;;;;;;;;5.33;5.33;;;;;22.08;74.34;101086.69;5060286;28;45409;-68
2022/06/30 07:14:17;;;;;;;;;6.00;4.00;;;;;22.12;76.31;101089.91;5059065;28;45252;-68
2022/06/30 07:16:42;;;;;;;;;7.67;4.00;;;;;22.26;73.60;101088.81;5061444;28;45381;-67
2022/06/30 07:19:07;;;;;;;;;5.00;5.00;;;;;22.33;73.33;101092.41;5058662;28;45362;-68
2022/06/30 07:21:33;;;;;;;;;6.67;6.67;;;;;22.37;75.38;101092.81;5059985;28;47181;-68
2022/06/30 07:23:58;;;;;;;;;9.00;7.00;;;;;22.34;76.13;101085.81;5055363;28;45423;-67
2022/06/30 07:26:23;;;;;;;;;5.67;4.67;;;;;22.39;77.31;101080.47;5061420;28;45766;-67
2022/06/30 07:28:49;;;;;;;;;5.67;5.67;;;;;22.48;74.53;101090.25;5055053;28;45509;-67
2022/06/30 07:31:15;;;;;;;;;7.00;6.67;;;;;22.43;76.57;101095.56;5060502;28;45541;-67
2022/06/30 07:33:42;;;;;;;;;8.33;8.00;;;;;22.33;76.95;101086.88;5070550;28;45381;-67
2022/06/30 07:36:08;;;;;;;;;10.00;10.00;;;;;22.06;79.31;101083.28;5060958;28;45363;-67
2022/06/30 07:38:34;;;;;;;;;7.00;5.33;;;;;22.22;77.09;101095.81;5052762;28;45486;-67
2022/06/30 07:41:00;;;;;;;;;7.00;7.00;;;;;22.29;76.31;101088.34;5060607;28;45484;-67
2022/06/30 07:43:25;;;;;;;;;7.67;7.67;;;;;22.35;75.54;101089.44;5054907;28;45648;-67
2022/06/30 07:45:52;;;;;;;;;6.67;5.67;;;;;22.01;78.46;101087.78;5060639;28;45393;-67
2022/06/30 07:48:18;;;;;;;;;6.33;6.33;;;;;21.69;80.86;101084.81;5055120;28;45316;-66
2022/06/30 07:50:44;;;;;;;;;8.00;7.00;;;;;21.35;81.67;101073.94;5059496;28;45377;-69
2022/06/30 07:53:09;;;;;;;;;6.00;6.00;;;;;21.61;81.78;101068.44;5055377;28;45381;-67
2022/06/30 07:55:34;;;;;;;;;7.67;7.00;;;;;21.92;79.31;101084.34;5060447;28;45437;-67
2022/06/30 07:58:00;;;;;;;;;8.33;7.00;;;;;22.05;79.20;101089.06;5059669;28;45321;-67
2022/06/30 08:00:25;;;;;;;;;8.00;7.00;;;;;22.14;76.38;101088.59;5059132;28;46402;-68
2022/06/30 08:02:52;;;;;;;;;8.33;7.00;;;;;22.16;78.13;101088.41;5059584;28;45282;-67
2022/06/30 08:05:17;;;;;;;;;9.00;7.33;;;;;21.74;76.95;101070.34;5061170;28;45306;-67
2022/06/30 08:07:43;;;;;;;;;4.67;4.67;;;;;21.98;75.87;101093.75;5059619;28;45223;-67
2022/06/30 08:10:09;;;;;;;;;7.00;7.00;;;;;22.00;77.93;101091.59;5060304;28;46415;-67
2022/06/30 08:12:35;;;;;;;;;4.67;4.00;;;;;22.04;77.29;101077.16;5060030;28;45512;-67
2022/06/30 08:15:01;;;;;;;;;6.00;4.00;;;;;22.01;76.16;101079.47;5058753;28;45346;-67
2022/06/30 08:17:27;;;;;;;;;8.67;5.33;;;;;21.97;75.65;101075.47;5060414;28;45580;-67
2022/06/30 08:19:53;;;;;;;;;5.00;5.00;;;;;21.95;74.31;101075.63;5057330;28;47651;-67
2022/06/30 08:22:18;;;;;;;;;5.33;4.67;;;;;21.90;75.75;101078.19;5061128;28;45333;-67
2022/06/30 08:24:43;;;;;;;;;5.67;5.33;;;;;21.86;76.41;101087.97;5056198;28;45588;-67
2022/06/30 08:27:09;;;;;;;;;4.00;4.00;;;;;21.75;75.32;101060.97;5061578;28;45378;-67
2022/06/30 08:29:34;;;;;;;;;8.67;5.67;;;;;21.91;77.64;101077.13;5055672;28;46701;-67
2022/06/30 08:32:00;;;;;;;;;4.67;4.67;;;;;21.73;78.01;101072.25;5061139;28;45345;-67
2022/06/30 08:34:26;;;;;;;;;7.00;5.33;;;;;21.39;79.13;101049.50;5054826;28;45556;-66
2022/06/30 08:36:51;;;;;;;;;4.67;3.00;;;;;21.39;79.82;101066.94;5059695;28;45137;-66
2022/06/30 08:42:08;;;;;;;;;8.67;7.67;;;;;21.62;79.10;101072.91;5053691;28;45447;-67
2022/06/30 08:44:35;;;;;;;;;4.00;2.00;;;;;21.68;77.34;101066.50;5057642;28;45443;-67
2022/06/30 08:47:02;;;;;;;;;5.00;4.33;;;;;21.58;79.17;101071.59;5063625;28;45220;-67
2022/06/30 08:49:29;;;;;;;;;3.67;3.67;;;;;21.56;78.09;101083.94;5056199;28;47666;-67
2022/06/30 08:51:57;;;;;;;;;4.00;4.00;;;;;21.62;77.37;101075.66;5065536;28;45317;-67
2022/06/30 08:54:25;;;;;;;;;4.33;3.67;;;;;21.36;78.96;101051.59;5060170;28;45430;-67
2022/06/30 08:56:52;;;;;;;;;6.67;4.00;;;;;21.54;79.56;101059.28;5064388;28;45339;-67
2022/06/30 08:59:19;;;;;;;;;3.00;3.00;;;;;21.64;76.42;101059.69;5061887;28;46312;-67
2022/06/30 09:01:44;;;;;;;;;4.00;3.00;;;;;21.70;75.17;101064.38;5063927;28;45252;-67
2022/06/30 09:04:10;;;;;;;;;4.00;4.00;;;;;21.67;75.67;101052.91;5056617;28;45365;-67
2022/06/30 09:06:36;;;;;;;;;3.00;3.00;;;;;21.74;76.64;101049.06;5061569;28;45489;-67
2022/06/30 09:09:03;;;;;;;;;3.67;3.67;;;;;21.73;77.01;101061.19;5061716;28;46405;-67
2022/06/30 09:11:50;;;;;;;;;4.67;4.33;;;;;21.80;74.44;101049.25;5062501;28;45438;-67
2022/06/30 09:14:33;;;;;;;;;4.00;4.00;;;;;21.83;73.62;101046.06;5062106;28;45471;-67
2022/06/30 09:16:59;;;;;;;;;5.67;4.00;;;;;21.74;71.56;101038.00;5062596;28;45381;-67
2022/06/30 09:19:24;;;;;;;;;4.00;4.00;;;;;21.73;75.09;101039.06;5060550;28;45342;-67
2022/06/30 09:22:07;;;;;;;;;4.33;3.33;;;;;21.70;77.30;101036.72;5063195;28;45352;-67
2022/06/30 09:24:34;;;;;;;;;7.00;5.67;;;;;21.59;76.72;101031.84;5059457;28;45529;-68
2022/06/30 09:27:19;;;;;;;;;7.33;7.33;;;;;21.50;81.23;101048.84;5057920;28;45360;-67
2022/06/30 09:29:55;;;;;;;;;7.00;5.67;;;;;21.21;83.93;101050.97;5058450;28;45562;-67
2022/06/30 09:32:21;;;;;;;;;8.67;6.00;;;;;21.01;100.00;101060.25;5063287;28;45318;-67
2022/06/30 09:34:48;;;;;;;;;6.00;4.67;;;;;20.94;95.87;101063.84;5057278;28;45674;-67
2022/06/30 09:37:22;;;;;;;;;5.33;5.33;;;;;20.93;86.37;101064.91;5063602;28;45415;-67
2022/06/30 09:39:48;;;;;;;;;5.00;5.00;;;;;20.88;87.65;101066.59;5055848;28;46206;-65
2022/06/30 09:42:14;;;;;;;;;5.00;5.00;;;;;20.80;90.02;101072.28;5062707;28;45624;-66
2022/06/30 09:44:41;;;;;;;;;6.00;3.00;;;;;21.03;84.29;101080.22;5056122;28;45712;-66
2022/06/30 09:47:10;;;;;;;;;7.00;4.33;;;;;21.04;83.82;101068.13;5064448;28;45407;-66
2022/06/30 09:49:47;;;;;;;;;3.00;2.33;;;;;21.25;83.25;101081.81;5057413;28;45401;-66
2022/06/30 09:52:19;;;;;;;;;7.33;4.67;;;;;21.11;85.97;101085.56;5062806;28;45274;-66
2022/06/30 09:55:02;;;;;;;;;4.33;3.67;;;;;21.26;92.46;101077.94;5058046;28;45442;-66
2022/06/30 09:57:31;;;;;;;;;6.00;6.00;;;;;21.01;88.51;101079.59;5062063;28;45473;-66
2022/06/30 10:00:16;;;;;;;;;5.67;5.67;;;;;21.20;85.79;101073.25;5062494;28;46087;-66
2022/06/30 10:02:46;;;;;;;;;9.00;7.33;;;;;21.12;89.80;101081.72;5061421;28;45409;-66
2022/06/30 10:05:13;;;;;;;;;7.00;5.33;;;;;20.95;94.28;101084.88;5062901;28;45460;-65
2022/06/30 10:07:40;;;;;;;;;5.00;3.33;;;;;20.54;88.80;101087.69;5060801;28;45471;-67
2022/06/30 10:10:11;;;;;;;;;5.00;4.00;;;;;20.54;88.88;101081.31;5062607;28;46112;-67
2022/06/30 10:12:37;;;;;;;;;6.00;4.33;;;;;20.81;85.98;101077.63;5061667;28;45536;-68
2022/06/30 10:15:04;;;;;;;;;3.00;3.00;;;;;21.16;81.15;101089.44;5061893;28;45353;-68
2022/06/30 10:17:35;;;;;;;;;5.00;3.33;;;;;21.32;83.31;101090.94;5061122;28;45530;-67
2022/06/30 10:20:01;;;;;;;;;7.33;6.00;;;;;21.40;82.05;101093.50;5059621;28;45589;-67
2022/06/30 10:22:28;;;;;;;;;6.67;4.33;;;;;21.29;84.71;101094.13;5062889;28;45300;-67
2022/06/30 10:24:55;;;;;;;;;8.00;7.00;;;;;21.30;82.89;101095.81;5059649;28;45358;-65
2022/06/30 10:27:24;;;;;;;;;5.00;4.00;;;;;21.29;81.11;101105.19;5057373;28;45318;-66
2022/06/30 10:29:49;;;;;;;;;6.33;6.33;;;;;21.34;83.36;101114.53;5057047;28;45329;-67
2022/06/30 10:32:33;;;;;;;;;9.00;7.00;;;;;21.27;83.56;101123.88;5062287;28;45377;-66
2022/06/30 10:35:09;;;;;;;;;6.00;6.00;;;;;21.29;80.97;101130.91;5056974;28;45388;-68
2022/06/30 10:37:51;;;;;;;;;8.00;6.00;;;;;21.39;80.36;101119.44;5059623;28;45365;-68
2022/06/30 10:40:23;;;;;;;;;6.67;5.00;;;;;21.36;90.51;101131.78;5061034;28;47647;-67
2022/06/30 10:42:55;;;;;;;;;14.00;11.00;;;;;21.12;90.09;101134.22;5058862;28;45423;-67
2022/06/30 10:45:27;;;;;;;;;11.67;10.67;;;;;21.07;84.67;101136.75;5058024;28;45664;-66
2022/06/30 10:48:04;;;;;;;;;12.00;11.00;;;;;21.01;86.30;101132.06;5060951;28;45323;-66
2022/06/30 10:50:40;;;;;;;;;9.67;7.67;;;;;20.93;81.67;101133.94;5059508;28;46200;-66
2022/06/30 10:53:08;;;;;;;;;6.00;6.00;;;;;20.69;85.24;101137.25;5059480;28;45422;-67
2022/06/30 10:55:52;;;;;;;;;8.00;8.00;;;;;20.48;100.00;101140.97;5061548;28;45409;-66
2022/06/30 10:58:19;;;;;;;;;8.33;7.00;;;;;20.43;100.00;101157.28;5060715;28;45357;-67
2022/06/30 11:01:00;;;;;;;;;6.00;6.00;;;;;20.63;93.68;101157.38;5062089;28;45574;-66
2022/06/30 11:03:34;;;;;;;;;9.67;7.67;;;;;20.81;88.59;101151.34;5059731;28;45398;-66
2022/06/30 11:06:05;;;;;;;;;9.00;7.33;;;;;20.85;91.70;101159.00;5052042;28;45505;-66
2022/06/30 11:08:50;;;;;;;;;10.67;7.67;;;;;20.92;89.68;101165.38;5073174;28;45484;-67
2022/06/30 11:11:24;;;;;;;;;9.67;7.00;;;;;20.97;93.01;101162.84;5062130;28;45466;-67
2022/06/30 11:14:02;;;;;;;;;8.33;8.33;;;;;20.98;89.35;101164.56;5051480;28;45355;-67
2022/06/30 11:16:34;;;;;;;;;14.00;14.00;;;;;21.34;87.91;101155.13;5061381;28;45306;-67
2022/06/30 11:19:00;;;;;;;;;5.00;5.00;;;;;21.25;89.50;101142.59;5055941;28;45619;-67
2022/06/30 11:21:29;;;;;;;;;5.00;5.00;;;;;21.31;87.73;101150.91;5060780;28;45417;-67
2022/06/30 11:23:58;;;;;;;;;7.33;7.00;;;;;21.30;86.87;101142.81;5058349;28;45404;-67
2022/06/30 11:29:15;;;;;;;;;8.67;8.00;;;;;21.27;85.49;101157.03;5052345;28;45458;-67
2022/06/30 11:31:42;;;;;;;;;6.67;4.00;;;;;21.31;88.64;101158.34;5062126;28;47158;-67
2022/06/30 11:34:18;;;;;;;;;9.33;9.33;;;;;21.51;86.09;101152.84;5056017;28;45321;-67
2022/06/30 11:36:44;;;;;;;;;8.00;8.00;;;;;21.71;82.13;101140.75;5062190;28;45307;-67
2022/06/30 11:39:17;;;;;;;;;6.00;6.00;;;;;21.77;82.72;101122.44;5055562;28;45334;-67
2022/06/30 11:41:55;;;;;;;;;9.00;4.67;;;;;21.83;79.78;101112.47;5061792;28;46489;-68
2022/06/30 11:44:42;;;;;;;;;6.33;5.67;;;;;21.92;83.03;101123.06;5053851;28;45406;-67